createdAt,value
2023-06-26T00:00:52.912Z,3.25
2023-06-26T00:01:55.326Z,3.03
2023-06-26T00:02:57.979Z,3.53
2023-06-26T00:03:59.951Z,3.30
2023-06-26T00:05:03.395Z,2.92
2023-06-26T00:06:06.553Z,3.10
2023-06-26T00:07:08.325Z,3.33
2023-06-26T00:08:10.007Z,3.33
2023-06-26T00:09:13.307Z,3.00
2023-06-26T00:10:14.939Z,3.00
2023-06-26T00:11:16.749Z,3.60
2023-06-26T00:12:18.538Z,3.28
2023-06-26T00:13:21.497Z,3.78
2023-06-26T00:14:23.417Z,3.53
2023-06-26T00:15:26.392Z,3.10
2023-06-26T00:16:28.988Z,3.30
2023-06-26T00:17:33.399Z,3.38
2023-06-26T00:18:36.776Z,3.50
2023-06-26T00:19:38.460Z,3.40
2023-06-26T00:20:41.228Z,3.42
2023-06-26T00:21:49.168Z,3.22
2023-06-26T00:22:51.976Z,3.38
2023-06-26T00:23:53.713Z,3.22
2023-06-26T00:24:55.925Z,3.28
2023-06-26T00:25:57.960Z,3.38
2023-06-26T00:27:00.074Z,3.47
2023-06-26T00:28:02.716Z,2.83
2023-06-26T00:29:06.288Z,3.47
2023-06-26T00:30:09.700Z,3.45
2023-06-26T00:31:11.698Z,3.65
2023-06-26T00:32:13.488Z,3.95
2023-06-26T00:33:22.552Z,3.58
2023-06-26T00:34:24.420Z,3.80
2023-06-26T00:35:26.539Z,3.63
2023-06-26T00:36:28.343Z,3.22
2023-06-26T00:37:34.786Z,3.28
2023-06-26T00:38:36.765Z,3.47
2023-06-26T00:39:42.537Z,3.70
2023-06-26T00:40:45.021Z,3.03
2023-06-26T00:41:46.800Z,3.03
2023-06-26T00:42:48.566Z,3.55
2023-06-26T00:43:52.074Z,3.53
2023-06-26T00:44:54.632Z,3.80
2023-06-26T00:45:59.876Z,3.53
2023-06-26T00:47:02.361Z,3.60
2023-06-26T00:48:04.981Z,3.83
2023-06-26T00:49:06.770Z,3.90
2023-06-26T00:50:10.206Z,3.92
2023-06-26T00:51:13.029Z,3.67
2023-06-26T00:52:15.016Z,4.00
2023-06-26T00:53:17.644Z,3.85
2023-06-26T00:54:23.335Z,3.63
2023-06-26T00:55:25.321Z,3.53
2023-06-26T00:56:28.918Z,3.58
2023-06-26T00:57:33.592Z,3.70
2023-06-26T00:58:36.863Z,3.78
2023-06-26T00:59:40.360Z,3.58
2023-06-26T01:00:46.637Z,3.90
2023-06-26T01:01:49.774Z,3.60
2023-06-26T01:02:51.871Z,3.92
2023-06-26T01:03:54.821Z,4.10
2023-06-26T01:05:01.871Z,4.20
2023-06-26T01:06:04.086Z,4.28
2023-06-26T01:07:08.629Z,3.90
2023-06-26T01:08:12.661Z,4.10
2023-06-26T01:09:15.065Z,4.13
2023-06-26T01:10:18.433Z,4.10
2023-06-26T01:11:23.206Z,3.83
2023-06-26T01:12:25.163Z,4.40
2023-06-26T01:13:28.241Z,4.13
2023-06-26T01:14:30.071Z,4.10
2023-06-26T01:15:31.930Z,4.00
2023-06-26T01:16:35.570Z,4.22
2023-06-26T01:17:41.520Z,4.15
2023-06-26T01:18:48.357Z,3.78
2023-06-26T01:19:51.819Z,4.00
2023-06-26T01:20:55.025Z,4.45
2023-06-26T01:22:15.926Z,4.07
2023-06-26T01:23:51.556Z,4.47
2023-06-26T01:25:23.833Z,3.88
2023-06-26T01:26:30.734Z,4.80
2023-06-26T01:27:36.674Z,4.50
2023-06-26T01:28:44.293Z,4.22
2023-06-26T01:29:47.704Z,4.78
2023-06-26T01:30:51.453Z,4.18
2023-06-26T01:31:53.497Z,4.75
2023-06-26T01:32:56.646Z,4.40
2023-06-26T01:34:02.798Z,4.38
2023-06-26T01:35:08.089Z,4.53
2023-06-26T01:36:10.241Z,4.10
2023-06-26T01:37:12.764Z,3.90
2023-06-26T01:38:18.316Z,4.30
2023-06-26T01:39:21.895Z,4.53
2023-06-26T01:40:26.597Z,4.20
2023-06-26T01:41:28.211Z,4.40
2023-06-26T01:42:30.147Z,4.63
2023-06-26T01:43:50.081Z,4.85
2023-06-26T01:44:54.349Z,4.20
2023-06-26T01:46:05.171Z,4.15
2023-06-26T01:47:07.038Z,4.70
2023-06-26T01:48:13.781Z,5.03
2023-06-26T01:49:31.035Z,4.47
2023-06-26T01:50:36.901Z,4.47
2023-06-26T01:51:46.896Z,4.40
2023-06-26T01:53:07.611Z,4.88
2023-06-26T01:54:21.485Z,4.32
2023-06-26T01:56:06.554Z,4.88
2023-06-26T01:57:09.798Z,4.30
2023-06-26T01:58:11.850Z,4.53
2023-06-26T01:59:15.331Z,5.10
2023-06-26T02:00:22.744Z,5.40
2023-06-26T02:01:24.861Z,4.75
2023-06-26T02:02:27.140Z,5.03
2023-06-26T02:03:29.189Z,4.80
2023-06-26T02:04:33.990Z,4.25
2023-06-26T02:05:36.647Z,4.65
2023-06-26T02:06:39.634Z,4.22
2023-06-26T02:07:50.259Z,5.10
2023-06-26T02:08:52.502Z,4.65
2023-06-26T02:09:54.801Z,4.18
2023-06-26T02:10:56.850Z,4.55
2023-06-26T02:11:58.529Z,4.70
2023-06-26T02:13:05.028Z,4.53
2023-06-26T02:14:06.854Z,4.40
2023-06-26T02:15:10.756Z,4.07
2023-06-26T02:16:18.419Z,4.13
2023-06-26T02:17:21.033Z,4.78
2023-06-26T02:18:26.578Z,4.95
2023-06-26T02:19:28.586Z,5.15
2023-06-26T02:20:31.018Z,4.75
2023-06-26T02:21:32.975Z,4.85
2023-06-26T02:22:36.842Z,5.07
2023-06-26T02:23:39.077Z,4.50
2023-06-26T02:24:41.788Z,4.38
2023-06-26T02:25:43.476Z,4.07
2023-06-26T02:26:45.837Z,4.38
2023-06-26T02:27:48.013Z,4.53
2023-06-26T02:28:50.022Z,4.43
2023-06-26T02:29:51.660Z,4.22
2023-06-26T02:30:53.292Z,4.65
2023-06-26T02:31:55.175Z,4.90
2023-06-26T02:32:58.036Z,4.63
2023-06-26T02:33:59.972Z,4.65
2023-06-26T02:35:02.522Z,5.20
2023-06-26T02:36:04.820Z,4.57
2023-06-26T02:37:08.662Z,5.30
2023-06-26T02:38:11.634Z,5.00
2023-06-26T02:39:15.186Z,5.18
2023-06-26T02:40:17.667Z,4.75
2023-06-26T02:41:20.125Z,4.93
2023-06-26T02:42:22.075Z,5.07
2023-06-26T02:43:24.409Z,5.07
2023-06-26T02:44:26.628Z,5.05
2023-06-26T02:45:28.319Z,4.55
2023-06-26T02:46:37.348Z,4.70
2023-06-26T02:47:40.954Z,4.43
2023-06-26T02:48:45.343Z,4.78
2023-06-26T02:49:47.801Z,5.05
2023-06-26T02:50:50.311Z,4.63
2023-06-26T02:51:52.218Z,5.07
2023-06-26T02:53:02.761Z,5.28
2023-06-26T02:54:04.963Z,4.95
2023-06-26T02:55:07.691Z,4.85
2023-06-26T02:56:10.445Z,5.10
2023-06-26T02:57:13.963Z,4.55
2023-06-26T02:58:16.888Z,5.10
2023-06-26T02:59:19.536Z,4.70
2023-06-26T03:00:21.745Z,5.28
2023-06-26T03:01:29.268Z,5.00
2023-06-26T03:02:31.468Z,4.68
2023-06-26T03:03:41.770Z,4.82
2023-06-26T03:04:48.181Z,4.43
2023-06-26T03:05:51.377Z,4.65
2023-06-26T03:06:53.224Z,5.57
2023-06-26T03:07:56.775Z,4.93
2023-06-26T03:08:58.495Z,5.82
2023-06-26T03:10:03.016Z,4.60
2023-06-26T03:11:04.984Z,4.82
2023-06-26T03:12:07.668Z,5.65
2023-06-26T03:13:10.267Z,5.03
2023-06-26T03:14:13.050Z,5.20
2023-06-26T03:15:15.098Z,5.68
2023-06-26T03:16:16.770Z,6.00
2023-06-26T03:17:18.614Z,5.85
2023-06-26T03:18:22.891Z,5.95
2023-06-26T03:19:25.044Z,5.70
2023-06-26T03:20:46.876Z,5.50
2023-06-26T03:21:48.504Z,5.47
2023-06-26T03:22:53.111Z,5.38
2023-06-26T03:23:56.835Z,5.32
2023-06-26T03:24:58.553Z,5.20
2023-06-26T03:26:00.644Z,5.00
2023-06-26T03:27:07.828Z,5.63
2023-06-26T03:28:09.886Z,5.10
2023-06-26T03:29:11.958Z,4.88
2023-06-26T03:30:14.982Z,5.18
2023-06-26T03:31:18.843Z,5.32
2023-06-26T03:32:21.703Z,5.25
2023-06-26T03:33:23.432Z,4.82
2023-06-26T03:34:26.682Z,5.13
2023-06-26T03:35:29.865Z,4.85
2023-06-26T03:36:31.743Z,5.18
2023-06-26T03:37:35.032Z,5.00
2023-06-26T03:38:36.844Z,4.72
2023-06-26T03:39:38.782Z,4.47
2023-06-26T03:40:41.530Z,5.10
2023-06-26T03:41:43.401Z,5.18
2023-06-26T03:42:49.348Z,5.22
2023-06-26T03:43:51.657Z,5.43
2023-06-26T03:44:56.777Z,5.57
2023-06-26T03:45:58.592Z,5.78
2023-06-26T03:47:01.810Z,5.53
2023-06-26T03:48:03.675Z,5.55
2023-06-26T03:49:10.874Z,5.63
2023-06-26T03:50:13.774Z,5.85
2023-06-26T03:51:16.610Z,5.93
2023-06-26T03:52:19.547Z,6.00
2023-06-26T03:53:21.534Z,5.60
2023-06-26T03:54:23.507Z,6.05
2023-06-26T03:55:26.466Z,5.68
2023-06-26T03:56:28.158Z,5.65
2023-06-26T03:57:29.882Z,6.15
2023-06-26T03:58:31.537Z,5.88
2023-06-26T03:59:33.303Z,6.20
2023-06-26T04:00:35.179Z,6.30
2023-06-26T04:01:43.836Z,5.88
2023-06-26T04:02:48.487Z,6.20
2023-06-26T04:03:53.328Z,5.68
2023-06-26T04:04:55.051Z,5.70
2023-06-26T04:05:56.752Z,5.97
2023-06-26T04:07:00.603Z,6.15
2023-06-26T04:08:02.784Z,5.68
2023-06-26T04:09:05.986Z,6.07
2023-06-26T04:10:08.626Z,6.63
2023-06-26T04:11:10.849Z,7.13
2023-06-26T04:12:12.809Z,6.32
2023-06-26T04:13:16.002Z,6.22
2023-06-26T04:14:18.602Z,5.88
2023-06-26T04:15:20.819Z,5.88
2023-06-26T04:16:26.452Z,6.20
2023-06-26T04:17:28.194Z,5.90
2023-06-26T04:18:30.073Z,6.78
2023-06-26T04:19:31.803Z,5.90
2023-06-26T04:20:36.691Z,5.72
2023-06-26T04:21:38.846Z,5.90
2023-06-26T04:22:41.059Z,5.70
2023-06-26T04:23:43.449Z,6.38
2023-06-26T04:24:47.594Z,6.30
2023-06-26T04:25:49.992Z,5.68
2023-06-26T04:26:51.834Z,5.93
2023-06-26T04:27:53.442Z,5.90
2023-06-26T04:28:57.786Z,5.93
2023-06-26T04:29:59.787Z,6.05
2023-06-26T04:31:04.761Z,5.90
2023-06-26T04:32:08.077Z,5.68
2023-06-26T04:33:13.180Z,5.82
2023-06-26T04:34:15.328Z,5.93
2023-06-26T04:35:21.566Z,5.63
2023-06-26T04:36:23.327Z,5.78
2023-06-26T04:37:25.663Z,6.43
2023-06-26T04:38:27.661Z,5.85
2023-06-26T04:39:31.414Z,6.45
2023-06-26T04:40:33.115Z,7.38
2023-06-26T04:41:42.087Z,6.82
2023-06-26T04:42:43.796Z,5.95
2023-06-26T04:43:46.007Z,6.03
2023-06-26T04:44:47.938Z,6.57
2023-06-26T04:45:50.263Z,6.00
2023-06-26T04:46:53.281Z,6.25
2023-06-26T04:47:55.541Z,5.90
2023-06-26T04:48:59.124Z,7.90
2023-06-26T04:50:01.456Z,6.22
2023-06-26T04:51:03.014Z,5.72
2023-06-26T04:52:04.956Z,6.40
2023-06-26T04:53:06.729Z,6.10
2023-06-26T04:54:09.618Z,6.10
2023-06-26T04:55:11.493Z,6.00
2023-06-26T04:56:13.297Z,5.40
2023-06-26T04:57:15.904Z,5.60
2023-06-26T04:58:23.493Z,5.50
2023-06-26T04:59:25.204Z,5.85
2023-06-26T05:00:26.831Z,5.78
2023-06-26T05:01:33.176Z,6.18
2023-06-26T05:02:35.046Z,6.05
2023-06-26T05:03:38.015Z,6.07
2023-06-26T05:04:40.865Z,6.22
2023-06-26T05:05:42.775Z,6.35
2023-06-26T05:06:44.449Z,5.65
2023-06-26T05:07:46.591Z,5.53
2023-06-26T05:08:48.162Z,5.75
2023-06-26T05:09:50.006Z,5.60
2023-06-26T05:10:51.715Z,5.93
2023-06-26T05:11:53.332Z,6.93
2023-06-26T05:12:55.006Z,6.50
2023-06-26T05:13:56.631Z,5.45
2023-06-26T05:14:58.277Z,5.45
2023-06-26T05:16:00.164Z,6.15
2023-06-26T05:17:01.913Z,5.40
2023-06-26T05:18:03.728Z,7.55
2023-06-26T05:19:08.433Z,6.57
2023-06-26T05:20:13.367Z,6.53
2023-06-26T05:21:16.617Z,5.78
2023-06-26T05:22:18.440Z,5.57
2023-06-26T05:23:23.279Z,5.25
2023-06-26T05:24:27.190Z,4.90
2023-06-26T05:25:34.874Z,5.47
2023-06-26T05:26:40.768Z,5.05
2023-06-26T05:27:42.786Z,5.50
2023-06-26T05:28:49.779Z,5.30
2023-06-26T05:29:51.771Z,5.22
2023-06-26T05:30:56.656Z,5.32
2023-06-26T05:31:58.929Z,5.50
2023-06-26T05:33:01.837Z,5.75
2023-06-26T05:34:05.370Z,5.20
2023-06-26T05:35:08.106Z,5.97
2023-06-26T05:36:10.886Z,7.88
2023-06-26T05:37:19.181Z,6.25
2023-06-26T05:38:22.712Z,5.63
2023-06-26T05:39:25.934Z,5.10
2023-06-26T05:40:28.425Z,4.90
2023-06-26T05:41:33.674Z,4.95
2023-06-26T05:42:38.780Z,4.90
2023-06-26T05:43:41.069Z,4.90
2023-06-26T05:44:43.595Z,4.57
2023-06-26T05:45:45.849Z,4.65
2023-06-26T05:46:47.737Z,4.50
2023-06-26T05:47:51.774Z,4.90
2023-06-26T05:48:53.965Z,4.40
2023-06-26T05:49:58.638Z,5.25
2023-06-26T05:51:01.548Z,4.75
2023-06-26T05:52:03.408Z,4.70
2023-06-26T05:53:06.686Z,4.55
2023-06-26T05:54:08.855Z,4.75
2023-06-26T05:55:11.822Z,4.65
2023-06-26T05:56:13.789Z,4.63
2023-06-26T05:57:16.697Z,4.50
2023-06-26T05:58:23.883Z,4.63
2023-06-26T05:59:27.796Z,4.70
2023-06-26T06:00:29.979Z,5.82
2023-06-26T06:01:31.707Z,5.85
2023-06-26T06:02:33.846Z,5.60
2023-06-26T06:03:36.055Z,5.45
2023-06-26T06:04:38.826Z,6.25
2023-06-26T06:05:43.103Z,6.00
2023-06-26T06:06:45.351Z,6.32
2023-06-26T06:07:48.106Z,5.55
2023-06-26T06:08:50.089Z,4.88
2023-06-26T06:09:52.166Z,4.97
2023-06-26T06:10:54.101Z,4.90
2023-06-26T06:11:56.344Z,4.43
2023-06-26T06:12:58.114Z,5.55
2023-06-26T06:14:01.328Z,4.72
2023-06-26T06:15:07.608Z,4.97
2023-06-26T06:16:09.439Z,4.20
2023-06-26T06:17:11.649Z,4.70
2023-06-26T06:18:13.436Z,4.55
2023-06-26T06:19:15.086Z,4.60
2023-06-26T06:20:17.939Z,7.07
2023-06-26T06:21:19.847Z,4.78
2023-06-26T06:22:21.694Z,5.05
2023-06-26T06:23:24.879Z,4.90
2023-06-26T06:24:26.614Z,4.80
2023-06-26T06:25:28.267Z,4.43
2023-06-26T06:26:29.987Z,4.28
2023-06-26T06:27:32.591Z,4.53
2023-06-26T06:28:41.598Z,4.25
2023-06-26T06:29:43.445Z,3.90
2023-06-26T06:30:46.472Z,4.60
2023-06-26T06:31:48.325Z,4.50
2023-06-26T06:32:52.744Z,4.97
2023-06-26T06:33:54.720Z,4.45
2023-06-26T06:34:59.831Z,4.97
2023-06-26T06:36:01.560Z,4.43
2023-06-26T06:37:04.635Z,4.63
2023-06-26T06:38:06.600Z,4.38
2023-06-26T06:39:08.173Z,4.15
2023-06-26T06:40:13.435Z,4.32
2023-06-26T06:41:15.227Z,4.65
2023-06-26T06:42:16.912Z,4.63
2023-06-26T06:43:18.698Z,4.55
2023-06-26T06:44:23.641Z,4.93
2023-06-26T06:45:25.452Z,4.55
2023-06-26T06:46:28.214Z,4.20
2023-06-26T06:47:29.893Z,4.55
2023-06-26T06:48:32.659Z,4.57
2023-06-26T06:49:34.762Z,4.75
2023-06-26T06:50:36.942Z,4.40
2023-06-26T06:51:38.873Z,4.20
2023-06-26T06:52:41.948Z,4.35
2023-06-26T06:53:43.591Z,4.15
2023-06-26T06:55:06.546Z,4.10
2023-06-26T06:56:08.155Z,8.15
2023-06-26T06:57:09.847Z,6.78
2023-06-26T06:58:11.584Z,5.00
2023-06-26T06:59:13.267Z,5.28
2023-06-26T07:00:15.866Z,4.43
2023-06-26T07:01:20.897Z,4.35
2023-06-26T07:02:22.867Z,4.68
2023-06-26T07:03:24.632Z,4.18
2023-06-26T07:04:28.663Z,4.50
2023-06-26T07:05:31.288Z,4.60
2023-06-26T07:06:33.084Z,4.20
2023-06-26T07:07:39.241Z,4.10
2023-06-26T07:08:43.840Z,4.28
2023-06-26T07:09:45.905Z,4.30
2023-06-26T07:10:47.898Z,4.30
2023-06-26T07:11:52.010Z,4.53
2023-06-26T07:12:53.647Z,4.30
2023-06-26T07:13:56.605Z,4.40
2023-06-26T07:14:58.591Z,4.50
2023-06-26T07:16:00.286Z,4.65
2023-06-26T07:17:02.712Z,4.78
2023-06-26T07:18:04.936Z,4.53
2023-06-26T07:19:07.277Z,4.20
2023-06-26T07:20:11.213Z,4.40
2023-06-26T07:21:13.039Z,4.70
2023-06-26T07:22:15.127Z,4.28
2023-06-26T07:23:16.797Z,3.92
2023-06-26T07:24:18.500Z,4.30
2023-06-26T07:25:20.248Z,4.03
2023-06-26T07:26:35.866Z,3.80
2023-06-26T07:27:45.956Z,4.18
2023-06-26T07:28:47.893Z,4.40
2023-06-26T07:29:49.661Z,4.30
2023-06-26T07:30:51.588Z,4.00
2023-06-26T07:31:53.336Z,4.28
2023-06-26T07:32:55.254Z,4.20
2023-06-26T07:33:56.923Z,4.57
2023-06-26T07:34:58.508Z,5.05
2023-06-26T07:36:00.571Z,4.80
2023-06-26T07:37:02.572Z,4.55
2023-06-26T07:38:04.343Z,4.65
2023-06-26T07:39:06.616Z,4.18
2023-06-26T07:40:09.747Z,4.07
2023-06-26T07:41:11.631Z,3.97
2023-06-26T07:42:13.312Z,4.07
2023-06-26T07:43:15.061Z,4.07
2023-06-26T07:44:17.571Z,4.15
2023-06-26T07:45:19.200Z,4.32
2023-06-26T07:46:21.505Z,4.10
2023-06-26T07:47:23.164Z,4.35
2023-06-26T07:48:25.241Z,4.28
2023-06-26T07:49:26.926Z,4.00
2023-06-26T07:50:28.664Z,4.32
2023-06-26T07:51:30.871Z,3.95
2023-06-26T07:52:32.892Z,4.35
2023-06-26T07:53:34.807Z,4.75
2023-06-26T07:54:36.906Z,3.97
2023-06-26T07:55:38.599Z,4.10
2023-06-26T07:56:55.701Z,4.10
2023-06-26T07:57:58.337Z,4.70
2023-06-26T07:59:01.625Z,4.53
2023-06-26T08:00:04.995Z,4.25
2023-06-26T08:01:17.059Z,4.50
2023-06-26T08:02:19.117Z,4.78
2023-06-26T08:03:33.718Z,4.68
2023-06-26T08:04:37.236Z,4.25
2023-06-26T08:05:39.077Z,4.25
2023-06-26T08:06:43.872Z,3.88
2023-06-26T08:07:46.835Z,3.90
2023-06-26T08:08:48.438Z,3.85
2023-06-26T08:09:50.243Z,4.22
2023-06-26T08:10:51.844Z,3.88
2023-06-26T08:11:55.856Z,4.45
2023-06-26T08:12:58.461Z,4.13
2023-06-26T08:14:00.123Z,4.57
2023-06-26T08:15:03.879Z,4.07
2023-06-26T08:16:06.277Z,4.50
2023-06-26T08:17:08.877Z,3.80
2023-06-26T08:18:11.134Z,4.00
2023-06-26T08:19:17.698Z,4.97
2023-06-26T08:20:21.013Z,4.40
2023-06-26T08:21:23.044Z,7.10
2023-06-26T08:22:25.045Z,4.43
2023-06-26T08:23:27.116Z,4.78
2023-06-26T08:24:28.840Z,4.63
2023-06-26T08:25:30.752Z,4.60
2023-06-26T08:26:32.665Z,4.10
2023-06-26T08:27:35.576Z,4.47
2023-06-26T08:28:43.530Z,5.20
2023-06-26T08:29:45.425Z,4.82
2023-06-26T08:30:47.923Z,5.10
2023-06-26T08:31:49.737Z,4.45
2023-06-26T08:32:52.660Z,4.50
2023-06-26T08:33:54.740Z,4.30
2023-06-26T08:34:56.640Z,4.25
2023-06-26T08:35:58.252Z,4.40
2023-06-26T08:36:59.845Z,4.50
2023-06-26T08:38:01.616Z,4.75
2023-06-26T08:39:04.158Z,4.50
2023-06-26T08:40:07.918Z,4.60
2023-06-26T08:41:10.468Z,4.28
2023-06-26T08:42:12.559Z,4.47
2023-06-26T08:43:14.758Z,4.40
2023-06-26T08:44:17.056Z,8.73
2023-06-26T08:45:18.811Z,5.32
2023-06-26T08:46:21.056Z,16.17
2023-06-26T08:47:23.990Z,5.88
2023-06-26T08:48:32.526Z,4.70
2023-06-26T08:49:38.198Z,4.80
2023-06-26T08:50:41.112Z,4.45
2023-06-26T08:51:50.892Z,4.63
2023-06-26T08:53:14.565Z,4.40
2023-06-26T08:54:22.904Z,4.22
2023-06-26T08:55:27.791Z,4.22
2023-06-26T08:56:33.533Z,4.30
2023-06-26T08:57:37.988Z,4.20
2023-06-26T08:58:42.202Z,4.65
2023-06-26T08:59:48.807Z,4.65
2023-06-26T09:00:52.082Z,4.38
2023-06-26T09:01:54.437Z,4.60
2023-06-26T09:02:56.991Z,4.50
2023-06-26T09:03:58.757Z,4.47
2023-06-26T09:05:01.563Z,4.57
2023-06-26T09:06:03.330Z,4.50
2023-06-26T09:07:05.756Z,4.63
2023-06-26T09:08:08.441Z,3.88
2023-06-26T09:09:11.678Z,4.50
2023-06-26T09:10:13.484Z,4.50
2023-06-26T09:11:17.887Z,4.90
2023-06-26T09:12:21.584Z,4.65
2023-06-26T09:13:29.277Z,4.50
2023-06-26T09:14:32.470Z,4.53
2023-06-26T09:15:44.772Z,4.30
2023-06-26T09:16:46.835Z,4.35
2023-06-26T09:17:50.092Z,4.40
2023-06-26T09:18:53.769Z,5.95
2023-06-26T09:19:56.441Z,4.65
2023-06-26T09:20:58.192Z,4.75
2023-06-26T09:22:03.443Z,4.75
2023-06-26T09:23:08.320Z,4.47
2023-06-26T09:24:11.368Z,5.30
2023-06-26T09:25:13.505Z,4.95
2023-06-26T09:26:16.560Z,4.60
2023-06-26T09:27:19.323Z,5.07
2023-06-26T09:28:21.710Z,4.60
2023-06-26T09:29:23.440Z,5.20
2023-06-26T09:30:26.307Z,4.40
2023-06-26T09:31:40.374Z,5.32
2023-06-26T09:32:43.232Z,9.82
2023-06-26T09:33:48.947Z,5.30
2023-06-26T09:34:54.219Z,5.32
2023-06-26T09:35:56.726Z,4.78
2023-06-26T09:36:59.350Z,4.95
2023-06-26T09:38:01.946Z,5.38
2023-06-26T09:39:12.635Z,5.10
2023-06-26T09:40:16.748Z,5.07
2023-06-26T09:41:19.729Z,5.60
2023-06-26T09:42:21.990Z,5.20
2023-06-26T09:43:24.548Z,4.95
2023-06-26T09:44:28.821Z,5.43
2023-06-26T09:45:33.155Z,5.75
2023-06-26T09:46:40.178Z,6.10
2023-06-26T09:47:46.506Z,5.30
2023-06-26T09:48:51.868Z,5.85
2023-06-26T09:49:56.029Z,6.07
2023-06-26T09:51:11.702Z,6.38
2023-06-26T09:52:20.160Z,9.45
2023-06-26T09:53:22.026Z,7.88
2023-06-26T09:54:24.794Z,7.25
2023-06-26T09:55:33.313Z,7.05
2023-06-26T09:56:40.094Z,7.13
2023-06-26T09:57:45.422Z,7.70
2023-06-26T09:58:48.579Z,8.38
2023-06-26T09:59:53.675Z,8.13
2023-06-26T10:00:56.645Z,9.85
2023-06-26T10:02:03.857Z,7.63
2023-06-26T10:03:06.306Z,6.82
2023-06-26T10:04:08.313Z,6.68
2023-06-26T10:05:10.883Z,7.72
2023-06-26T10:06:14.133Z,7.50
2023-06-26T10:07:18.513Z,6.20
2023-06-26T10:08:20.460Z,6.30
2023-06-26T10:09:24.706Z,5.68
2023-06-26T10:10:28.390Z,5.40
2023-06-26T10:12:08.578Z,4.93
2023-06-26T10:13:22.845Z,4.60
2023-06-26T10:14:32.631Z,4.72
2023-06-26T10:15:36.413Z,4.70
2023-06-26T10:16:40.877Z,4.35
2023-06-26T10:17:44.994Z,4.50
2023-06-26T10:18:50.095Z,4.20
2023-06-26T10:19:55.090Z,4.00
2023-06-26T10:20:58.538Z,4.18
2023-06-26T10:22:02.697Z,3.90
2023-06-26T10:23:08.810Z,4.32
2023-06-26T10:24:14.653Z,4.10
2023-06-26T10:25:23.098Z,4.28
2023-06-26T10:26:27.688Z,4.40
2023-06-26T10:27:37.211Z,5.20
2023-06-26T10:28:39.812Z,4.10
2023-06-26T10:29:41.892Z,4.50
2023-06-26T10:30:45.977Z,4.10
2023-06-26T10:31:56.875Z,4.55
2023-06-26T10:32:59.708Z,4.43
2023-06-26T10:34:01.679Z,4.43
2023-06-26T10:35:06.690Z,6.57
2023-06-26T10:36:16.771Z,4.53
2023-06-26T10:37:18.650Z,4.68
2023-06-26T10:38:21.898Z,4.80
2023-06-26T10:39:23.646Z,5.00
2023-06-26T10:40:44.064Z,4.70
2023-06-26T10:42:04.131Z,5.28
2023-06-26T10:43:09.450Z,5.53
2023-06-26T10:44:18.276Z,4.82
2023-06-26T10:45:23.948Z,4.95
2023-06-26T10:46:26.589Z,4.80
2023-06-26T10:47:33.064Z,5.50
2023-06-26T10:48:59.542Z,5.28
2023-06-26T10:50:28.121Z,4.90
2023-06-26T10:52:37.849Z,5.05
2023-06-26T10:53:40.149Z,5.20
2023-06-26T10:54:41.957Z,4.85
2023-06-26T10:55:49.316Z,4.90
2023-06-26T10:56:57.734Z,4.82
2023-06-26T10:57:59.909Z,4.65
2023-06-26T10:59:15.981Z,4.72
2023-06-26T11:00:21.887Z,5.43
2023-06-26T11:01:27.721Z,4.50
2023-06-26T11:02:48.632Z,4.70
2023-06-26T11:03:59.069Z,4.20
2023-06-26T11:05:01.296Z,5.57
2023-06-26T11:06:14.569Z,4.57
2023-06-26T11:07:27.068Z,4.40
2023-06-26T11:08:50.540Z,4.20
2023-06-26T11:10:24.793Z,4.35
2023-06-26T11:11:55.035Z,4.57
2023-06-26T11:12:59.063Z,5.13
2023-06-26T11:14:03.590Z,4.65
2023-06-26T11:15:14.738Z,4.63
2023-06-26T11:16:16.854Z,4.20
2023-06-26T11:17:20.215Z,4.45
2023-06-26T11:18:22.051Z,4.80
2023-06-26T11:19:23.804Z,4.82
2023-06-26T11:20:25.440Z,5.03
2023-06-26T11:21:27.759Z,4.90
2023-06-26T11:22:29.919Z,4.78
2023-06-26T11:23:34.764Z,5.53
2023-06-26T11:24:37.702Z,5.30
2023-06-26T11:25:39.773Z,5.53
2023-06-26T11:26:42.948Z,5.43
2023-06-26T11:27:45.981Z,5.47
2023-06-26T11:28:53.000Z,5.97
2023-06-26T11:29:54.848Z,5.78
2023-06-26T11:30:56.760Z,5.45
2023-06-26T11:32:05.625Z,5.40
2023-06-26T11:33:11.600Z,5.50
2023-06-26T11:34:14.813Z,5.63
2023-06-26T11:35:31.866Z,6.20
2023-06-26T11:36:33.646Z,6.35
2023-06-26T11:37:39.336Z,5.68
2023-06-26T11:38:41.484Z,6.10
2023-06-26T11:39:43.127Z,6.20
2023-06-26T11:40:44.904Z,6.03
2023-06-26T11:41:47.016Z,7.18
2023-06-26T11:42:51.715Z,5.85
2023-06-26T11:43:54.101Z,5.57
2023-06-26T11:44:58.889Z,5.85
2023-06-26T11:46:04.996Z,5.60
2023-06-26T11:47:07.088Z,6.07
2023-06-26T11:48:08.833Z,6.05
2023-06-26T11:49:11.764Z,5.05
2023-06-26T11:50:20.446Z,5.28
2023-06-26T11:52:23.636Z,4.75
2023-06-26T11:53:25.417Z,5.55
2023-06-26T11:54:28.398Z,5.47
2023-06-26T11:55:43.614Z,5.90
2023-06-26T11:56:53.618Z,5.47
2023-06-26T11:57:57.845Z,5.13
2023-06-26T11:59:11.291Z,5.07
2023-06-26T12:00:14.959Z,5.00
2023-06-26T12:01:18.047Z,4.82
2023-06-26T12:02:20.061Z,5.13
2023-06-26T12:03:22.214Z,4.55
2023-06-26T12:04:24.739Z,4.65
2023-06-26T12:05:26.851Z,4.10
2023-06-26T12:06:30.429Z,3.45
2023-06-26T12:07:32.636Z,3.00
2023-06-26T12:08:34.813Z,2.95
2023-06-26T12:09:47.954Z,3.13
2023-06-26T12:10:49.925Z,3.15
2023-06-26T12:11:54.942Z,2.92
2023-06-26T12:13:00.065Z,3.08
2023-06-26T12:14:02.684Z,2.50
2023-06-26T12:15:05.908Z,2.88
2023-06-26T12:16:08.258Z,2.88
2023-06-26T12:17:12.545Z,2.67
2023-06-26T12:18:14.482Z,2.22
2023-06-26T12:19:16.679Z,2.30
2023-06-26T12:20:23.195Z,2.65
2023-06-26T12:21:42.604Z,2.35
2023-06-26T12:22:44.716Z,2.10
2023-06-26T12:23:46.646Z,2.10
2023-06-26T12:24:49.798Z,1.92
2023-06-26T12:25:52.865Z,2.10
2023-06-26T12:26:58.053Z,2.13
2023-06-26T12:27:59.902Z,2.00
2023-06-26T12:29:09.404Z,2.15
2023-06-26T12:30:11.626Z,2.00
2023-06-26T12:31:15.424Z,1.85
2023-06-26T12:32:17.519Z,1.77
2023-06-26T12:33:19.509Z,2.28
2023-06-26T12:34:31.948Z,1.90
2023-06-26T12:35:34.962Z,1.88
2023-06-26T12:36:51.968Z,2.15
2023-06-26T12:37:55.453Z,1.88
2023-06-26T12:38:57.206Z,1.70
2023-06-26T12:39:59.450Z,1.70
2023-06-26T12:41:04.571Z,2.10
2023-06-26T12:42:06.889Z,2.25
2023-06-26T12:43:12.657Z,2.00
2023-06-26T12:44:33.919Z,2.58
2023-06-26T12:45:40.000Z,2.15
2023-06-26T12:46:42.004Z,3.00
2023-06-26T12:47:43.704Z,1.83
2023-06-26T12:48:52.739Z,2.30
2023-06-26T12:49:54.848Z,2.00
2023-06-26T12:50:56.577Z,2.47
2023-06-26T12:51:59.128Z,1.90
2023-06-26T12:53:01.438Z,2.10
2023-06-26T12:54:03.051Z,2.42
2023-06-26T12:55:06.863Z,2.40
2023-06-26T12:56:12.021Z,1.98
2023-06-26T12:57:17.728Z,2.30
2023-06-26T12:58:19.715Z,1.80
2023-06-26T12:59:22.920Z,1.98
2023-06-26T13:00:25.063Z,1.88
2023-06-26T13:01:28.084Z,2.92
2023-06-26T13:02:30.208Z,2.40
2023-06-26T13:03:33.900Z,2.25
2023-06-26T13:04:36.591Z,2.20
2023-06-26T13:05:38.401Z,2.20
2023-06-26T13:06:40.865Z,2.08
2023-06-26T13:07:42.735Z,2.08
2023-06-26T13:08:44.618Z,2.65
2023-06-26T13:09:47.377Z,2.10
2023-06-26T13:10:49.154Z,2.30
2023-06-26T13:11:51.521Z,2.45
2023-06-26T13:12:53.190Z,2.13
2023-06-26T13:14:09.517Z,2.47
2023-06-26T13:16:14.798Z,2.20
2023-06-26T13:17:16.754Z,2.17
2023-06-26T13:18:18.430Z,2.00
2023-06-26T13:19:20.100Z,1.80
2023-06-26T13:20:21.738Z,2.17
2023-06-26T13:21:23.390Z,1.90
2023-06-26T13:22:24.996Z,2.40
2023-06-26T13:23:26.664Z,2.00
2023-06-26T13:24:28.306Z,1.95
2023-06-26T13:25:31.400Z,2.15
2023-06-26T13:27:38.904Z,2.58
2023-06-26T13:28:40.957Z,2.13
2023-06-26T13:29:43.176Z,1.80
2023-06-26T13:30:45.002Z,1.88
2023-06-26T13:31:46.746Z,2.20
2023-06-26T13:32:48.448Z,2.03
2023-06-26T13:33:50.217Z,2.45
2023-06-26T13:34:51.892Z,1.85
2023-06-26T13:35:54.140Z,1.88
2023-06-26T13:36:56.614Z,2.45
2023-06-26T13:37:58.476Z,2.33
2023-06-26T13:39:00.151Z,1.55
2023-06-26T13:40:03.072Z,1.88
2023-06-26T13:41:04.734Z,2.10
2023-06-26T13:42:06.614Z,1.75
2023-06-26T13:43:08.636Z,1.52
2023-06-26T13:44:17.853Z,1.65
2023-06-26T13:45:33.283Z,1.60
2023-06-26T13:46:35.855Z,1.38
2023-06-26T13:47:42.588Z,1.80
2023-06-26T13:48:49.957Z,1.73
2023-06-26T13:49:54.756Z,1.55
2023-06-26T13:50:57.959Z,1.73
2023-06-26T13:51:59.847Z,2.00
2023-06-26T13:53:01.643Z,1.80
2023-06-26T13:54:03.659Z,1.75
2023-06-26T13:55:05.991Z,1.70
2023-06-26T13:56:08.643Z,1.60
2023-06-26T13:57:10.748Z,1.40
2023-06-26T13:58:16.649Z,1.52
2023-06-26T13:59:21.468Z,1.60
2023-06-26T14:00:23.879Z,1.67
2023-06-26T14:01:26.105Z,1.63
2023-06-26T14:02:28.242Z,1.92
2023-06-26T14:03:33.425Z,1.60
2023-06-26T14:04:35.559Z,1.58
2023-06-26T14:05:39.228Z,1.40
2023-06-26T14:06:43.246Z,1.55
2023-06-26T14:07:45.742Z,1.42
2023-06-26T14:08:47.610Z,1.17
2023-06-26T14:09:51.810Z,1.75
2023-06-26T14:10:53.440Z,1.20
2023-06-26T14:11:55.423Z,1.38
2023-06-26T14:12:57.028Z,1.63
2023-06-26T14:13:58.623Z,3.00
2023-06-26T14:15:01.432Z,1.50
2023-06-26T14:16:03.190Z,1.58
2023-06-26T14:17:07.138Z,1.40
2023-06-26T14:18:09.743Z,1.40